createdAt,value
2019-03-19T00:02:08.991Z,90.80
2019-03-19T00:04:37.291Z,91.00
2019-03-19T00:07:05.574Z,91.00
2019-03-19T00:09:33.827Z,91.00
2019-03-19T00:12:02.125Z,91.20
2019-03-19T00:14:30.431Z,90.90
2019-03-19T00:16:58.682Z,91.00
2019-03-19T00:19:26.991Z,90.90
2019-03-19T00:21:55.248Z,90.90
2019-03-19T00:24:23.474Z,90.90
2019-03-19T00:26:51.731Z,90.90
2019-03-19T00:29:19.956Z,90.90
2019-03-19T00:31:48.199Z,90.80
2019-03-19T00:34:16.444Z,90.90
2019-03-19T00:36:44.686Z,90.90
2019-03-19T00:39:12.931Z,90.90
2019-03-19T00:41:41.162Z,90.70
2019-03-19T00:44:09.414Z,90.70
2019-03-19T00:46:37.656Z,90.60
2019-03-19T00:49:06.932Z,90.60
2019-03-19T00:51:35.321Z,90.80
2019-03-19T00:54:03.566Z,91.20
2019-03-19T00:56:31.798Z,91.00
2019-03-19T00:59:00.076Z,90.90
2019-03-19T01:01:28.315Z,90.90
2019-03-19T01:03:56.559Z,91.00
2019-03-19T01:06:24.802Z,91.10
2019-03-19T01:08:53.044Z,91.00
2019-03-19T01:11:21.270Z,91.10
2019-03-19T01:13:49.549Z,90.90
2019-03-19T01:16:17.796Z,90.90
2019-03-19T01:18:46.035Z,90.80
2019-03-19T01:21:14.263Z,90.80
2019-03-19T01:23:42.502Z,90.90
2019-03-19T01:26:10.749Z,91.00
2019-03-19T01:28:38.986Z,90.90
2019-03-19T01:31:07.220Z,91.30
2019-03-19T01:33:35.466Z,91.10
2019-03-19T01:36:03.718Z,91.20
2019-03-19T01:38:32.031Z,91.10
2019-03-19T01:41:00.255Z,91.10
2019-03-19T01:43:28.507Z,91.30
2019-03-19T01:45:56.756Z,91.70
2019-03-19T01:48:25.006Z,91.40
2019-03-19T01:50:53.372Z,91.50
2019-03-19T01:53:21.685Z,91.30
2019-03-19T01:55:50.386Z,91.20
2019-03-19T01:58:18.623Z,91.20
2019-03-19T02:00:46.873Z,91.30
2019-03-19T02:03:15.111Z,91.30
2019-03-19T02:05:43.369Z,91.50
2019-03-19T02:08:11.603Z,91.40
2019-03-19T02:10:39.862Z,91.50
2019-03-19T02:13:08.096Z,91.60
2019-03-19T02:15:36.334Z,91.70
2019-03-19T02:18:04.584Z,91.70
2019-03-19T02:20:32.825Z,91.60
2019-03-19T02:23:01.069Z,91.50
2019-03-19T02:25:29.300Z,91.40
2019-03-19T02:27:57.558Z,91.70
2019-03-19T02:30:25.789Z,91.70
2019-03-19T02:32:54.037Z,91.70
2019-03-19T02:35:22.338Z,91.70
2019-03-19T02:37:50.577Z,91.60
2019-03-19T02:40:18.858Z,91.50
2019-03-19T02:42:47.112Z,91.50
2019-03-19T02:45:16.544Z,91.40
2019-03-19T02:47:44.831Z,91.40
2019-03-19T02:50:14.512Z,91.50
2019-03-19T02:52:42.744Z,91.50
2019-03-19T02:55:11.208Z,91.40
2019-03-19T02:57:39.494Z,91.40
2019-03-19T03:00:10.687Z,91.40
2019-03-19T03:02:38.915Z,91.30
2019-03-19T03:05:10.497Z,91.30
2019-03-19T03:07:38.756Z,91.00
2019-03-19T03:10:09.543Z,91.00
2019-03-19T03:12:37.783Z,91.10
2019-03-19T03:15:08.060Z,91.00
2019-03-19T03:17:36.296Z,90.90
2019-03-19T03:20:07.184Z,90.90
2019-03-19T03:22:35.435Z,90.80
2019-03-19T03:25:08.047Z,90.70
2019-03-19T03:27:36.294Z,91.00
2019-03-19T03:30:07.827Z,90.90
2019-03-19T03:32:36.104Z,90.90
2019-03-19T03:35:05.562Z,90.90
2019-03-19T03:37:33.844Z,90.80
2019-03-19T03:40:02.092Z,90.60
2019-03-19T03:42:30.323Z,90.70
2019-03-19T03:44:58.595Z,90.70
2019-03-19T03:47:26.835Z,90.60
2019-03-19T03:49:55.083Z,90.80
2019-03-19T03:52:23.320Z,90.80
2019-03-19T03:54:51.563Z,90.60
2019-03-19T03:57:19.805Z,90.50
2019-03-19T03:59:48.038Z,90.70
2019-03-19T04:02:16.271Z,90.80
2019-03-19T04:04:44.520Z,90.90
2019-03-19T04:07:12.762Z,91.10
2019-03-19T04:09:41.025Z,91.10
2019-03-19T04:12:09.334Z,90.90
2019-03-19T04:14:37.572Z,90.90
2019-03-19T04:17:05.812Z,90.40
2019-03-19T04:19:34.035Z,90.30
2019-03-19T04:22:02.282Z,90.40
2019-03-19T04:24:30.515Z,90.70
2019-03-19T04:26:58.848Z,90.50
2019-03-19T04:29:27.102Z,90.50
2019-03-19T04:31:55.335Z,90.60
2019-03-19T04:34:23.571Z,90.80
2019-03-19T04:36:51.824Z,90.70
2019-03-19T04:39:21.670Z,90.60
2019-03-19T04:41:49.931Z,90.60
2019-03-19T04:44:18.154Z,90.50
2019-03-19T04:46:46.390Z,90.30
2019-03-19T04:49:14.643Z,90.30
2019-03-19T04:51:42.887Z,90.30
2019-03-19T04:54:11.118Z,90.20
2019-03-19T04:56:39.371Z,90.10
2019-03-19T04:59:07.608Z,90.00
2019-03-19T05:01:35.846Z,90.00
2019-03-19T05:04:04.208Z,89.50
2019-03-19T05:06:32.496Z,90.00
2019-03-19T05:09:00.731Z,90.00
2019-03-19T05:11:29.039Z,90.30
2019-03-19T05:13:57.280Z,90.20
2019-03-19T05:16:25.514Z,90.20
2019-03-19T05:18:53.755Z,90.10
2019-03-19T05:21:22.002Z,90.20
2019-03-19T05:23:50.234Z,90.10
2019-03-19T05:26:18.480Z,90.10
2019-03-19T05:28:46.728Z,90.40
2019-03-19T05:31:14.971Z,90.50
2019-03-19T05:33:43.211Z,90.70
2019-03-19T05:36:11.479Z,90.00
2019-03-19T05:38:39.732Z,89.80
2019-03-19T05:41:08.003Z,89.60
2019-03-19T05:43:36.341Z,90.00
2019-03-19T05:46:04.598Z,89.80
2019-03-19T05:48:32.897Z,90.00
2019-03-19T05:51:01.121Z,90.00
2019-03-19T05:53:29.368Z,89.70
2019-03-19T05:55:57.599Z,90.00
2019-03-19T05:58:25.873Z,89.80
2019-03-19T06:00:54.104Z,89.90
2019-03-19T06:03:22.375Z,90.00
2019-03-19T06:05:50.611Z,90.50
2019-03-19T06:08:18.858Z,90.00
2019-03-19T06:10:47.098Z,90.00
2019-03-19T06:13:15.432Z,90.00
2019-03-19T06:15:43.678Z,89.10
2019-03-19T06:18:11.921Z,88.60
2019-03-19T06:20:40.179Z,89.00
2019-03-19T06:23:08.410Z,88.60
2019-03-19T06:25:36.672Z,88.30
2019-03-19T06:28:04.902Z,88.10
2019-03-19T06:30:33.155Z,88.40
2019-03-19T06:33:01.437Z,88.10
2019-03-19T06:35:29.715Z,87.80
2019-03-19T06:37:57.955Z,88.30
2019-03-19T06:40:26.204Z,86.90
2019-03-19T06:42:54.427Z,86.80
2019-03-19T06:45:23.220Z,87.20
2019-03-19T06:47:51.802Z,85.10
2019-03-19T06:50:20.899Z,85.20
2019-03-19T06:52:49.136Z,84.40
2019-03-19T06:55:18.632Z,83.50
2019-03-19T06:57:46.876Z,83.10
2019-03-19T07:00:20.047Z,82.40
2019-03-19T07:02:48.274Z,81.60
2019-03-19T07:05:17.479Z,81.50
2019-03-19T07:07:45.714Z,83.00
2019-03-19T07:10:16.176Z,82.40
2019-03-19T07:12:44.499Z,82.40
2019-03-19T07:15:19.419Z,81.90
2019-03-19T07:17:47.679Z,81.00
2019-03-19T07:20:18.211Z,81.10
2019-03-19T07:22:46.515Z,82.10
2019-03-19T07:25:16.016Z,82.10
2019-03-19T07:27:44.261Z,81.80
2019-03-19T07:30:25.414Z,81.00
2019-03-19T07:32:53.673Z,81.00
2019-03-19T07:35:21.915Z,80.60
2019-03-19T07:37:50.170Z,80.60
2019-03-19T07:40:18.480Z,80.30
2019-03-19T07:42:46.884Z,80.00
2019-03-19T07:45:24.887Z,79.30
2019-03-19T07:47:53.122Z,79.50
2019-03-19T07:50:22.224Z,79.00
2019-03-19T07:52:50.470Z,77.90
2019-03-19T07:55:18.696Z,78.10
2019-03-19T07:57:46.965Z,78.70
2019-03-19T08:00:17.276Z,78.50
2019-03-19T08:02:45.747Z,76.90
2019-03-19T08:05:13.988Z,76.60
2019-03-19T08:07:42.222Z,77.40
2019-03-19T08:10:14.330Z,76.70
2019-03-19T08:12:42.581Z,76.40
2019-03-19T08:15:19.851Z,75.20
2019-03-19T08:17:48.102Z,74.60
2019-03-19T08:20:17.278Z,74.60
2019-03-19T08:22:45.526Z,74.80
2019-03-19T08:25:14.522Z,73.60
2019-03-19T08:27:42.827Z,75.20
2019-03-19T08:30:24.340Z,73.30
2019-03-19T08:32:52.083Z,73.20
2019-03-19T08:35:20.318Z,73.30
2019-03-19T08:37:48.571Z,71.80
2019-03-19T08:40:18.729Z,72.00
2019-03-19T08:42:46.982Z,71.50
2019-03-19T08:45:23.191Z,70.20
2019-03-19T08:47:51.476Z,68.90
2019-03-19T08:50:23.363Z,72.90
2019-03-19T08:52:51.608Z,68.20
2019-03-19T08:55:20.012Z,67.60
2019-03-19T08:57:48.251Z,66.90
2019-03-19T09:00:18.690Z,66.60
2019-03-19T09:02:46.916Z,68.40
2019-03-19T09:05:15.375Z,67.00
2019-03-19T09:07:43.662Z,65.10
2019-03-19T09:10:16.010Z,65.20
2019-03-19T09:12:44.244Z,66.20
2019-03-19T09:15:17.032Z,66.80
2019-03-19T09:17:45.281Z,67.60
2019-03-19T09:20:16.857Z,67.60
2019-03-19T09:22:45.090Z,66.70
2019-03-19T09:25:13.410Z,67.50
2019-03-19T09:27:41.638Z,67.60
2019-03-19T09:30:17.806Z,69.60
2019-03-19T09:32:46.114Z,70.50
2019-03-19T09:35:14.361Z,69.50
2019-03-19T09:37:46.312Z,70.30
2019-03-19T09:40:19.831Z,71.00
2019-03-19T09:42:48.159Z,72.40
2019-03-19T09:45:17.373Z,72.10
2019-03-19T09:47:45.872Z,71.00
2019-03-19T09:50:21.372Z,71.00
2019-03-19T09:52:49.626Z,71.00
2019-03-19T09:55:17.876Z,72.10
2019-03-19T09:57:46.186Z,73.30
2019-03-19T10:00:21.536Z,71.80
2019-03-19T10:02:50.069Z,72.40
2019-03-19T10:05:18.475Z,72.50
2019-03-19T10:07:46.855Z,69.80
2019-03-19T10:10:21.566Z,69.60
2019-03-19T10:12:50.019Z,68.20
2019-03-19T10:15:18.401Z,66.00
2019-03-19T10:17:46.644Z,66.10
2019-03-19T10:20:18.075Z,63.90
2019-03-19T10:22:46.687Z,64.30
2019-03-19T10:25:15.870Z,64.20
2019-03-19T10:27:44.111Z,64.20
2019-03-19T10:30:15.142Z,62.40
2019-03-19T10:32:43.386Z,58.70
2019-03-19T10:35:11.623Z,58.10
2019-03-19T10:37:39.870Z,56.30
2019-03-19T10:40:09.845Z,54.10
2019-03-19T10:42:38.100Z,56.00
2019-03-19T10:45:09.739Z,54.10
2019-03-19T10:47:37.974Z,55.80
2019-03-19T10:50:15.063Z,56.80
2019-03-19T10:52:43.309Z,57.50
2019-03-19T10:55:11.534Z,55.50
2019-03-19T10:57:39.782Z,55.90
2019-03-19T11:00:19.282Z,56.30
2019-03-19T11:02:47.579Z,55.30
2019-03-19T11:05:16.151Z,54.10
2019-03-19T11:07:44.388Z,53.60
2019-03-19T11:10:14.263Z,55.30
2019-03-19T11:12:42.580Z,54.60
2019-03-19T11:15:18.045Z,50.90
2019-03-19T11:17:46.296Z,48.60
2019-03-19T11:20:19.358Z,46.80
2019-03-19T11:22:47.606Z,47.40
2019-03-19T11:25:25.603Z,47.10
2019-03-19T11:27:53.839Z,43.80
2019-03-19T11:30:24.171Z,44.60
2019-03-19T11:32:52.422Z,44.90
2019-03-19T11:35:20.650Z,45.70
2019-03-19T11:37:48.923Z,42.90
2019-03-19T11:40:18.116Z,45.60
2019-03-19T11:42:46.550Z,49.90
2019-03-19T11:45:21.271Z,52.50
2019-03-19T11:47:49.532Z,53.30
2019-03-19T11:50:22.771Z,52.90
2019-03-19T11:52:51.093Z,53.90
2019-03-19T11:55:19.382Z,52.60
2019-03-19T11:57:47.647Z,53.10
2019-03-19T12:00:22.611Z,53.00
2019-03-19T12:02:50.860Z,50.80
2019-03-19T12:05:19.095Z,48.90
2019-03-19T12:07:47.343Z,49.90
2019-03-19T12:10:15.586Z,51.60
2019-03-19T12:12:43.844Z,50.80
2019-03-19T12:15:12.348Z,50.20
2019-03-19T12:17:40.624Z,49.60
2019-03-19T12:20:12.811Z,50.40
2019-03-19T12:22:41.057Z,50.90
2019-03-19T12:25:10.527Z,48.90
2019-03-19T12:27:38.791Z,49.30
2019-03-19T12:30:22.474Z,48.80
2019-03-19T12:32:48.059Z,47.90
2019-03-19T12:35:17.583Z,48.30
2019-03-19T12:37:45.831Z,49.00
2019-03-19T12:40:21.092Z,47.90
2019-03-19T12:42:49.331Z,47.70
2019-03-19T12:45:19.772Z,47.20
2019-03-19T12:47:48.076Z,45.40
2019-03-19T12:50:18.038Z,43.40
2019-03-19T12:52:46.279Z,43.50
2019-03-19T12:55:20.610Z,41.30
2019-03-19T12:57:48.967Z,41.30
2019-03-19T13:00:34.325Z,43.40
2019-03-19T13:02:56.454Z,42.10
2019-03-19T13:05:24.721Z,41.10
2019-03-19T13:07:52.964Z,41.20
2019-03-19T13:10:24.850Z,43.00
2019-03-19T13:12:53.087Z,44.10
2019-03-19T13:15:21.504Z,42.70
2019-03-19T13:17:49.812Z,44.50
2019-03-19T13:20:22.182Z,44.60
2019-03-19T13:22:53.032Z,41.00
2019-03-19T13:25:22.165Z,39.70
2019-03-19T13:27:50.474Z,40.80
2019-03-19T13:30:30.146Z,43.80
2019-03-19T13:32:58.396Z,44.00
2019-03-19T13:35:26.637Z,43.10
2019-03-19T13:37:54.882Z,42.80
2019-03-19T13:40:23.215Z,44.00
2019-03-19T13:42:51.489Z,44.10
2019-03-19T13:45:23.056Z,44.70
2019-03-19T13:47:51.289Z,44.90
2019-03-19T13:50:20.181Z,44.50
2019-03-19T13:52:48.449Z,44.20
2019-03-19T13:55:17.614Z,44.50
2019-03-19T13:57:45.939Z,44.10
2019-03-19T14:00:15.528Z,44.10
2019-03-19T14:02:43.834Z,45.70
2019-03-19T14:05:12.901Z,47.30
2019-03-19T14:07:41.139Z,47.70
2019-03-19T14:10:11.974Z,46.70
2019-03-19T14:12:40.259Z,45.10
2019-03-19T14:15:14.185Z,44.10
2019-03-19T14:17:42.519Z,40.60
2019-03-19T14:20:13.570Z,39.50
2019-03-19T14:22:41.812Z,42.00
2019-03-19T14:25:11.188Z,43.30
2019-03-19T14:27:39.429Z,43.30
2019-03-19T14:30:10.955Z,44.60
2019-03-19T14:32:39.240Z,46.60
2019-03-19T14:35:08.426Z,44.70
2019-03-19T14:37:36.691Z,42.50
2019-03-19T14:40:08.418Z,42.00
2019-03-19T14:42:36.663Z,39.70
2019-03-19T14:45:07.343Z,37.10
2019-03-19T14:47:35.583Z,36.40
2019-03-19T14:50:06.663Z,36.40
2019-03-19T14:52:34.919Z,36.90
2019-03-19T14:55:03.219Z,39.50
2019-03-19T14:57:31.494Z,39.10
2019-03-19T14:59:59.774Z,38.30
2019-03-19T15:02:28.049Z,38.30
2019-03-19T15:04:56.279Z,39.70
2019-03-19T15:07:24.547Z,40.10
2019-03-19T15:09:52.779Z,36.10
2019-03-19T15:12:21.030Z,33.00
2019-03-19T15:14:49.283Z,32.20
2019-03-19T15:17:17.519Z,34.10
2019-03-19T15:19:45.932Z,35.70
2019-03-19T15:22:14.174Z,35.60
2019-03-19T15:24:42.415Z,33.90
2019-03-19T15:27:10.671Z,34.50
2019-03-19T15:29:38.910Z,33.40
2019-03-19T15:32:07.148Z,32.30
2019-03-19T15:34:35.444Z,32.80
2019-03-19T15:37:03.695Z,32.90
2019-03-19T15:39:31.945Z,32.60
2019-03-19T15:42:00.196Z,34.50
2019-03-19T15:44:28.439Z,37.60
2019-03-19T15:46:56.697Z,40.00
2019-03-19T15:49:24.950Z,42.10
2019-03-19T15:51:53.193Z,43.30
2019-03-19T15:54:22.378Z,45.00
2019-03-19T15:56:50.623Z,45.40
2019-03-19T15:59:18.847Z,46.10
2019-03-19T16:01:47.081Z,43.60
2019-03-19T16:04:15.329Z,43.60
2019-03-19T16:06:43.568Z,37.60
2019-03-19T16:09:11.817Z,37.00
2019-03-19T16:11:40.055Z,36.80
2019-03-19T16:14:08.294Z,33.80
2019-03-19T16:16:36.532Z,33.50
2019-03-19T16:19:04.780Z,33.20
2019-03-19T16:21:33.042Z,34.20
2019-03-19T16:24:01.280Z,34.30
2019-03-19T16:26:29.514Z,34.20
2019-03-19T16:28:57.763Z,34.60
2019-03-19T16:31:26.078Z,34.70
2019-03-19T16:33:54.323Z,35.80
2019-03-19T16:36:22.635Z,37.20
2019-03-19T16:38:50.891Z,37.50
2019-03-19T16:41:19.191Z,38.10
2019-03-19T16:43:47.443Z,37.80
2019-03-19T16:46:15.675Z,38.40
2019-03-19T16:48:43.923Z,38.20
2019-03-19T16:51:12.162Z,40.30
2019-03-19T16:53:40.417Z,40.30
2019-03-19T16:56:08.651Z,40.40
2019-03-19T16:58:36.910Z,40.80
2019-03-19T17:01:05.145Z,42.20
2019-03-19T17:03:33.364Z,42.50
2019-03-19T17:06:01.611Z,42.90
2019-03-19T17:08:29.843Z,43.50
2019-03-19T17:10:58.097Z,45.20
2019-03-19T17:13:26.331Z,44.80
2019-03-19T17:15:54.582Z,46.20
2019-03-19T17:18:22.810Z,46.10
2019-03-19T17:20:51.062Z,45.60
2019-03-19T17:23:19.297Z,47.40
2019-03-19T17:25:47.563Z,47.20
2019-03-19T17:28:22.433Z,48.70
2019-03-19T17:30:45.766Z,49.50
2019-03-19T17:33:14.029Z,49.60
2019-03-19T17:35:42.271Z,50.70
2019-03-19T17:38:10.498Z,51.00
2019-03-19T17:40:41.532Z,49.90
2019-03-19T17:43:08.714Z,51.20
2019-03-19T17:45:36.971Z,50.90
2019-03-19T17:48:15.442Z,52.70
2019-03-19T17:50:37.521Z,53.70
2019-03-19T17:53:06.442Z,53.30
2019-03-19T17:55:34.687Z,54.10
2019-03-19T17:58:02.922Z,54.90
2019-03-19T18:00:32.831Z,54.00
2019-03-19T18:03:01.095Z,55.60
2019-03-19T18:05:29.360Z,56.90
2019-03-19T18:07:57.601Z,57.10
2019-03-19T18:10:25.839Z,57.50
2019-03-19T18:12:54.086Z,58.10
2019-03-19T18:15:22.336Z,57.30
2019-03-19T18:17:50.558Z,57.70
2019-03-19T18:20:18.884Z,57.00
2019-03-19T18:22:47.110Z,57.70
2019-03-19T18:25:19.111Z,57.10
2019-03-19T18:27:47.364Z,58.30
2019-03-19T18:30:21.854Z,57.90
2019-03-19T18:32:50.091Z,57.50
2019-03-19T18:35:18.348Z,58.60
2019-03-19T18:37:46.587Z,59.20
2019-03-19T18:40:15.875Z,60.00
2019-03-19T18:42:44.115Z,59.50
2019-03-19T18:45:13.920Z,62.30
2019-03-19T18:47:42.168Z,60.00
2019-03-19T18:50:23.091Z,58.20
2019-03-19T18:52:51.325Z,59.10
2019-03-19T18:55:19.573Z,59.30
2019-03-19T18:57:47.906Z,59.30
2019-03-19T19:00:17.320Z,60.90
2019-03-19T19:02:50.294Z,61.50
2019-03-19T19:05:17.783Z,61.60
2019-03-19T19:07:46.094Z,61.60
2019-03-19T19:10:16.442Z,61.70
2019-03-19T19:12:44.897Z,62.20
2019-03-19T19:15:17.686Z,62.30
2019-03-19T19:17:46.045Z,62.70
2019-03-19T19:20:15.315Z,63.60
2019-03-19T19:22:43.802Z,64.90
2019-03-19T19:25:17.013Z,64.70
2019-03-19T19:27:45.875Z,65.20
2019-03-19T19:30:26.533Z,65.90
2019-03-19T19:33:01.971Z,64.90
2019-03-19T19:35:28.107Z,63.80
2019-03-19T19:37:59.157Z,64.20
2019-03-19T19:40:28.041Z,65.00
2019-03-19T19:42:56.929Z,65.90
2019-03-19T19:45:25.718Z,65.90
2019-03-19T19:47:54.531Z,66.30
2019-03-19T19:50:23.919Z,66.80
2019-03-19T19:52:53.238Z,67.20
2019-03-19T19:55:24.225Z,68.20
2019-03-19T19:57:53.681Z,67.80
2019-03-19T20:00:23.434Z,67.50
2019-03-19T20:02:53.873Z,67.30
2019-03-19T20:05:23.311Z,67.50
2019-03-19T20:07:53.023Z,68.00
2019-03-19T20:10:26.859Z,67.00
2019-03-19T20:12:56.850Z,67.10
2019-03-19T20:15:26.510Z,67.50
2019-03-19T20:17:56.395Z,66.80
2019-03-19T20:20:30.910Z,67.40
2019-03-19T20:23:00.821Z,68.50
2019-03-19T20:25:30.262Z,68.50
2019-03-19T20:28:00.318Z,68.70
2019-03-19T20:30:30.190Z,68.40
2019-03-19T20:32:59.953Z,68.80
2019-03-19T20:35:29.546Z,69.00
2019-03-19T20:37:59.624Z,68.60
2019-03-19T20:40:29.387Z,69.40
2019-03-19T20:43:11.476Z,69.30
2019-03-19T20:45:41.202Z,69.80
2019-03-19T20:48:10.623Z,69.60
2019-03-19T20:50:40.825Z,69.30
2019-03-19T20:53:10.412Z,69.50
2019-03-19T20:55:39.790Z,69.90
2019-03-19T20:58:09.432Z,70.70
2019-03-19T21:00:38.542Z,70.90
2019-03-19T21:03:07.497Z,70.90
2019-03-19T21:05:36.926Z,71.20
2019-03-19T21:08:05.792Z,70.90
2019-03-19T21:10:34.681Z,70.10
2019-03-19T21:13:03.472Z,69.90
2019-03-19T21:15:32.255Z,69.80
2019-03-19T21:18:00.936Z,69.90
2019-03-19T21:20:29.731Z,70.40
2019-03-19T21:22:58.153Z,71.00
2019-03-19T21:25:26.531Z,72.40
2019-03-19T21:27:54.994Z,72.90
2019-03-19T21:30:24.125Z,73.30
2019-03-19T21:32:52.433Z,74.00
2019-03-19T21:35:22.891Z,73.40
2019-03-19T21:37:51.189Z,74.90
2019-03-19T21:40:19.431Z,75.50
2019-03-19T21:42:47.676Z,74.80
2019-03-19T21:45:18.155Z,74.60
2019-03-19T21:47:46.448Z,74.60
2019-03-19T21:50:19.054Z,74.80
2019-03-19T21:52:47.304Z,75.30
2019-03-19T21:55:15.615Z,75.70
2019-03-19T21:57:43.938Z,75.80
2019-03-19T22:00:19.921Z,76.40
2019-03-19T22:02:48.147Z,75.70
2019-03-19T22:05:16.393Z,76.40
2019-03-19T22:07:44.620Z,76.80
2019-03-19T22:10:17.653Z,76.60
2019-03-19T22:12:45.896Z,76.20
2019-03-19T22:15:16.076Z,76.00
2019-03-19T22:17:44.394Z,76.10
2019-03-19T22:20:12.915Z,77.10
2019-03-19T22:22:41.146Z,76.60
2019-03-19T22:25:12.091Z,76.80
2019-03-19T22:27:40.364Z,76.60
2019-03-19T22:30:11.451Z,77.20
2019-03-19T22:32:39.868Z,77.20
2019-03-19T22:35:08.106Z,77.50
2019-03-19T22:37:36.334Z,77.30
2019-03-19T22:40:07.874Z,77.90
2019-03-19T22:42:36.149Z,77.90
2019-03-19T22:45:07.536Z,78.10
2019-03-19T22:47:35.768Z,77.30
2019-03-19T22:50:05.753Z,78.00
2019-03-19T22:52:33.988Z,78.30
2019-03-19T22:55:02.226Z,78.80
2019-03-19T22:57:30.499Z,78.30
2019-03-19T22:59:58.784Z,77.80
2019-03-19T23:02:27.007Z,77.80
2019-03-19T23:04:55.357Z,77.60
2019-03-19T23:07:23.591Z,77.30
2019-03-19T23:09:51.827Z,77.30
2019-03-19T23:12:20.069Z,77.80
2019-03-19T23:14:48.316Z,77.30
2019-03-19T23:17:16.550Z,77.00
2019-03-19T23:19:44.800Z,76.90
2019-03-19T23:22:13.027Z,76.70
2019-03-19T23:24:41.276Z,77.80
2019-03-19T23:27:09.507Z,78.10
2019-03-19T23:29:37.746Z,77.50
2019-03-19T23:32:05.979Z,77.60
2019-03-19T23:34:38.565Z,77.50
2019-03-19T23:37:04.170Z,77.10
2019-03-19T23:39:32.407Z,77.50
2019-03-19T23:42:00.648Z,77.60
2019-03-19T23:44:28.887Z,77.80
2019-03-19T23:46:57.700Z,77.90
2019-03-19T23:49:26.064Z,77.90
2019-03-19T23:51:54.365Z,78.10
2019-03-19T23:54:22.587Z,78.70
2019-03-19T23:56:50.834Z,79.00
2019-03-19T23:59:19.152Z,78.60
